createdAt,value
2017-02-09T00:00:08.090Z,66.05
2017-02-09T00:01:07.726Z,65.24
2017-02-09T00:02:07.413Z,65.34
2017-02-09T00:03:08.074Z,63.96
2017-02-09T00:04:07.725Z,64.62
2017-02-09T00:05:08.320Z,65.57
2017-02-09T00:06:14.550Z,66.47
2017-02-09T00:07:07.628Z,66.65
2017-02-09T00:08:08.270Z,66.78
2017-02-09T00:09:08.022Z,66.83
2017-02-09T00:10:07.590Z,66.80
2017-02-09T00:11:08.231Z,66.21
2017-02-09T00:12:08.956Z,66.13
2017-02-09T00:13:07.559Z,66.16
2017-02-09T00:14:08.251Z,65.71
2017-02-09T00:15:08.953Z,65.30
2017-02-09T00:16:07.555Z,65.62
2017-02-09T00:17:08.291Z,65.77
2017-02-09T00:18:08.089Z,65.64
2017-02-09T00:19:07.705Z,66.41
2017-02-09T00:20:08.317Z,66.92
2017-02-09T00:21:08.007Z,67.20
2017-02-09T00:22:07.663Z,66.57
2017-02-09T00:23:08.338Z,66.26
2017-02-09T00:24:08.020Z,66.58
2017-02-09T00:25:07.638Z,66.78
2017-02-09T00:26:07.522Z,67.04
2017-02-09T00:27:08.064Z,66.96
2017-02-09T00:28:07.740Z,66.67
2017-02-09T00:29:07.465Z,66.62
2017-02-09T00:30:08.033Z,66.54
2017-02-09T00:31:07.701Z,67.10
2017-02-09T00:32:08.330Z,67.05
2017-02-09T00:33:08.044Z,66.28
2017-02-09T00:34:07.699Z,65.88
2017-02-09T00:35:08.330Z,66.71
2017-02-09T00:36:07.981Z,67.29
2017-02-09T00:37:07.636Z,66.56
2017-02-09T00:38:08.365Z,66.89
2017-02-09T00:39:08.003Z,66.74
2017-02-09T00:40:07.604Z,67.16
2017-02-09T00:41:08.284Z,66.38
2017-02-09T00:42:18.041Z,66.57
2017-02-09T00:43:07.631Z,66.69
2017-02-09T00:44:08.521Z,66.61
2017-02-09T00:45:07.992Z,66.36
2017-02-09T00:46:07.555Z,65.98
2017-02-09T00:47:09.263Z,66.57
2017-02-09T00:48:07.906Z,66.76
2017-02-09T00:49:07.602Z,67.12
2017-02-09T00:50:08.224Z,67.57
2017-02-09T00:51:07.893Z,67.78
2017-02-09T00:52:07.518Z,67.74
2017-02-09T00:53:08.140Z,67.99
2017-02-09T00:54:07.829Z,67.69
2017-02-09T00:55:07.422Z,68.20
2017-02-09T00:56:08.208Z,67.92
2017-02-09T00:57:07.841Z,67.71
2017-02-09T00:58:07.517Z,67.62
2017-02-09T00:59:08.192Z,67.57
2017-02-09T01:00:07.887Z,68.60
2017-02-09T01:01:07.464Z,68.72
2017-02-09T01:02:08.141Z,68.77
2017-02-09T01:03:07.842Z,69.35
2017-02-09T01:04:07.439Z,68.19
2017-02-09T01:05:08.141Z,68.35
2017-02-09T01:06:07.800Z,68.53
2017-02-09T01:07:07.417Z,68.59
2017-02-09T01:08:08.093Z,68.48
2017-02-09T01:09:07.763Z,69.19
2017-02-09T01:10:07.409Z,68.65
2017-02-09T01:11:08.056Z,67.80
2017-02-09T01:12:07.673Z,68.00
2017-02-09T01:13:08.345Z,68.53
2017-02-09T01:14:08.047Z,68.49
2017-02-09T01:15:07.674Z,67.96
2017-02-09T01:16:08.304Z,68.28
2017-02-09T01:17:07.947Z,67.70
2017-02-09T01:18:07.729Z,68.04
2017-02-09T01:19:08.393Z,67.86
2017-02-09T01:20:08.051Z,69.99
2017-02-09T01:21:07.664Z,69.82
2017-02-09T01:22:08.335Z,69.54
2017-02-09T01:23:08.024Z,68.57
2017-02-09T01:24:07.717Z,68.49
2017-02-09T01:25:08.301Z,68.12
2017-02-09T01:26:08.158Z,69.24
2017-02-09T01:27:07.745Z,69.42
2017-02-09T01:28:07.378Z,68.44
2017-02-09T01:29:08.060Z,68.68
2017-02-09T01:30:07.654Z,69.16
2017-02-09T01:31:08.293Z,70.00
2017-02-09T01:32:08.082Z,69.86
2017-02-09T01:33:07.750Z,69.48
2017-02-09T01:34:07.470Z,69.01
2017-02-09T01:35:08.060Z,68.80
2017-02-09T01:36:07.705Z,68.62
2017-02-09T01:37:08.332Z,68.97
2017-02-09T01:38:07.999Z,69.69
2017-02-09T01:39:07.673Z,69.60
2017-02-09T01:40:08.262Z,69.76
2017-02-09T01:41:07.908Z,70.12
2017-02-09T01:42:07.582Z,68.68
2017-02-09T01:43:08.205Z,68.79
2017-02-09T01:44:08.054Z,68.66
2017-02-09T01:45:07.562Z,68.57
2017-02-09T01:46:08.194Z,68.99
2017-02-09T01:47:07.868Z,69.62
2017-02-09T01:48:07.535Z,69.97
2017-02-09T01:49:08.217Z,69.41
2017-02-09T01:50:07.856Z,70.00
2017-02-09T01:51:07.489Z,70.22
2017-02-09T01:52:08.126Z,69.73
2017-02-09T01:53:07.727Z,70.51
2017-02-09T01:54:07.574Z,69.24
2017-02-09T01:55:08.054Z,69.65
2017-02-09T01:56:07.875Z,70.16
2017-02-09T01:57:07.515Z,70.52
2017-02-09T01:58:08.214Z,70.53
2017-02-09T01:59:07.898Z,70.39
2017-02-09T02:00:07.528Z,70.91
2017-02-09T02:01:08.178Z,70.40
2017-02-09T02:02:07.786Z,70.60
2017-02-09T02:03:07.476Z,70.37
2017-02-09T02:04:08.118Z,70.15
2017-02-09T02:05:07.789Z,70.07
2017-02-09T02:06:07.416Z,70.17
2017-02-09T02:07:08.096Z,69.80
2017-02-09T02:08:07.751Z,70.74
2017-02-09T02:09:07.447Z,70.02
2017-02-09T02:10:08.091Z,70.34
2017-02-09T02:11:07.754Z,70.75
2017-02-09T02:12:07.388Z,70.53
2017-02-09T02:13:08.099Z,70.61
2017-02-09T02:14:07.843Z,70.35
2017-02-09T02:15:07.417Z,70.91
2017-02-09T02:16:08.036Z,70.84
2017-02-09T02:17:07.784Z,70.83
2017-02-09T02:18:07.597Z,71.23
2017-02-09T02:19:08.331Z,71.73
2017-02-09T02:20:07.907Z,71.70
2017-02-09T02:21:07.554Z,72.32
2017-02-09T02:22:08.188Z,71.89
2017-02-09T02:23:07.859Z,70.89
2017-02-09T02:24:07.659Z,70.74
2017-02-09T02:25:08.178Z,71.59
2017-02-09T02:26:07.991Z,71.48
2017-02-09T02:27:07.660Z,71.25
2017-02-09T02:28:08.301Z,70.65
2017-02-09T02:29:08.013Z,71.54
2017-02-09T02:30:07.660Z,71.23
2017-02-09T02:31:08.372Z,72.16
2017-02-09T02:32:07.936Z,71.31
2017-02-09T02:33:07.634Z,71.52
2017-02-09T02:34:08.481Z,71.51
2017-02-09T02:35:07.910Z,72.11
2017-02-09T02:36:07.568Z,71.02
2017-02-09T02:37:08.266Z,70.90
2017-02-09T02:38:07.934Z,70.85
2017-02-09T02:39:07.621Z,71.06
2017-02-09T02:40:08.255Z,71.72
2017-02-09T02:41:07.826Z,72.00
2017-02-09T02:42:07.758Z,71.27
2017-02-09T02:43:08.190Z,71.25
2017-02-09T02:44:07.871Z,70.06
2017-02-09T02:45:07.480Z,71.44
2017-02-09T02:46:08.144Z,71.59
2017-02-09T02:47:07.819Z,71.77
2017-02-09T02:48:07.545Z,71.29
2017-02-09T02:49:08.167Z,71.59
2017-02-09T02:50:07.815Z,71.40
2017-02-09T02:51:07.441Z,70.52
2017-02-09T02:52:08.104Z,70.91
2017-02-09T02:53:07.741Z,70.68
2017-02-09T02:54:07.431Z,69.80
2017-02-09T02:55:08.042Z,70.36
2017-02-09T02:56:07.740Z,70.09
2017-02-09T02:57:07.398Z,71.22
2017-02-09T02:58:08.022Z,71.77
2017-02-09T02:59:07.774Z,71.79
2017-02-09T03:00:08.356Z,71.54
2017-02-09T03:01:07.971Z,70.92
2017-02-09T03:02:07.641Z,70.65
2017-02-09T03:03:07.521Z,71.38
2017-02-09T03:04:08.171Z,70.78
2017-02-09T03:05:07.779Z,70.80
2017-02-09T03:06:07.391Z,71.39
2017-02-09T03:07:08.045Z,71.07
2017-02-09T03:08:07.682Z,70.51
2017-02-09T03:09:08.448Z,70.60
2017-02-09T03:10:07.979Z,70.30
2017-02-09T03:11:07.645Z,69.76
2017-02-09T03:12:08.291Z,69.27
2017-02-09T03:13:07.899Z,69.92
2017-02-09T03:14:07.613Z,69.59
2017-02-09T03:15:08.211Z,71.37
2017-02-09T03:16:07.880Z,70.89
2017-02-09T03:17:07.602Z,70.49
2017-02-09T03:18:08.333Z,70.70
2017-02-09T03:19:08.013Z,70.60
2017-02-09T03:20:07.627Z,69.63
2017-02-09T03:21:08.326Z,69.71
2017-02-09T03:22:09.428Z,70.39
2017-02-09T03:23:07.603Z,70.03
2017-02-09T03:24:08.301Z,70.62
2017-02-09T03:25:07.904Z,71.19
2017-02-09T03:26:07.686Z,71.51
2017-02-09T03:27:07.763Z,71.76
2017-02-09T03:28:07.449Z,71.80
2017-02-09T03:29:08.099Z,71.85
2017-02-09T03:30:07.726Z,71.73
2017-02-09T03:31:07.388Z,70.70
2017-02-09T03:32:08.001Z,71.11
2017-02-09T03:33:07.727Z,69.90
2017-02-09T03:34:08.369Z,70.53
2017-02-09T03:35:07.992Z,70.23
2017-02-09T03:36:08.035Z,70.01
2017-02-09T03:37:08.209Z,70.47
2017-02-09T03:38:07.907Z,70.68
2017-02-09T03:39:07.593Z,70.68
2017-02-09T03:40:08.223Z,70.59
2017-02-09T03:41:07.850Z,70.68
2017-02-09T03:42:07.503Z,71.02
2017-02-09T03:43:08.101Z,70.36
2017-02-09T03:44:07.816Z,70.42
2017-02-09T03:45:07.415Z,71.32
2017-02-09T03:46:08.087Z,70.78
2017-02-09T03:47:07.759Z,70.86
2017-02-09T03:48:07.419Z,70.17
2017-02-09T03:49:08.062Z,69.80
2017-02-09T03:50:07.692Z,70.56
2017-02-09T03:51:08.340Z,70.96
2017-02-09T03:52:08.034Z,70.77
2017-02-09T03:53:07.632Z,68.93
2017-02-09T03:54:08.410Z,69.67
2017-02-09T03:55:07.960Z,70.54
2017-02-09T03:56:07.751Z,70.72
2017-02-09T03:57:07.457Z,71.24
2017-02-09T03:58:08.071Z,70.24
2017-02-09T03:59:07.774Z,69.93
2017-02-09T04:00:08.367Z,70.64
2017-02-09T04:01:08.027Z,69.89
2017-02-09T04:02:07.683Z,71.06
2017-02-09T04:03:08.403Z,70.59
2017-02-09T04:04:08.064Z,70.36
2017-02-09T04:05:07.686Z,70.87
2017-02-09T04:06:08.312Z,70.42
2017-02-09T04:07:08.016Z,70.28
2017-02-09T04:08:07.612Z,70.21
2017-02-09T04:09:08.353Z,70.03
2017-02-09T04:10:07.969Z,69.89
2017-02-09T04:11:07.637Z,69.32
2017-02-09T04:12:08.263Z,69.61
2017-02-09T04:13:07.899Z,69.19
2017-02-09T04:14:07.620Z,69.07
2017-02-09T04:15:08.848Z,70.40
2017-02-09T04:16:07.892Z,71.04
2017-02-09T04:17:07.559Z,71.81
2017-02-09T04:18:08.378Z,71.50
2017-02-09T04:19:08.053Z,70.76
2017-02-09T04:20:07.680Z,70.27
2017-02-09T04:21:08.321Z,70.29
2017-02-09T04:22:07.970Z,69.74
2017-02-09T04:23:07.623Z,70.18
2017-02-09T04:24:08.313Z,70.26
2017-02-09T04:25:07.921Z,69.84
2017-02-09T04:26:07.710Z,70.53
2017-02-09T04:27:08.369Z,70.39
2017-02-09T04:28:08.032Z,70.40
2017-02-09T04:29:07.713Z,69.78
2017-02-09T04:30:08.387Z,70.30
2017-02-09T04:31:07.979Z,69.59
2017-02-09T04:32:07.673Z,69.34
2017-02-09T04:33:08.353Z,70.61
2017-02-09T04:34:08.033Z,71.12
2017-02-09T04:35:07.662Z,71.17
2017-02-09T04:36:08.300Z,71.73
2017-02-09T04:37:07.951Z,71.56
2017-02-09T04:38:07.583Z,70.96
2017-02-09T04:39:08.257Z,70.31
2017-02-09T04:40:07.910Z,70.50
2017-02-09T04:41:07.630Z,69.69
2017-02-09T04:42:08.177Z,69.93
2017-02-09T04:43:07.832Z,69.97
2017-02-09T04:44:07.503Z,70.25
2017-02-09T04:45:08.133Z,71.13
2017-02-09T04:46:07.802Z,70.47
2017-02-09T04:47:07.429Z,70.27
2017-02-09T04:48:08.126Z,69.68
2017-02-09T04:49:07.817Z,69.78
2017-02-09T04:50:07.390Z,70.85
2017-02-09T04:51:08.095Z,71.51
2017-02-09T04:52:07.701Z,71.16
2017-02-09T04:53:08.333Z,71.53
2017-02-09T04:54:08.024Z,70.99
2017-02-09T04:55:07.671Z,71.04
2017-02-09T04:56:07.423Z,70.49
2017-02-09T04:57:08.067Z,70.22
2017-02-09T04:58:07.744Z,71.15
2017-02-09T04:59:08.402Z,71.47
2017-02-09T05:00:08.053Z,72.23
2017-02-09T05:01:07.701Z,71.93
2017-02-09T05:02:08.298Z,71.24
2017-02-09T05:03:08.014Z,71.25
2017-02-09T05:04:07.688Z,70.75
2017-02-09T05:05:08.310Z,71.07
2017-02-09T05:06:07.987Z,71.54
2017-02-09T05:07:07.660Z,72.05
2017-02-09T05:08:08.308Z,71.81
2017-02-09T05:09:07.978Z,71.82
2017-02-09T05:10:07.661Z,71.75
2017-02-09T05:11:08.228Z,71.55
2017-02-09T05:12:07.872Z,70.27
2017-02-09T05:13:07.536Z,70.87
2017-02-09T05:14:08.255Z,70.87
2017-02-09T05:15:07.846Z,71.45
2017-02-09T05:16:07.508Z,70.94
2017-02-09T05:17:08.250Z,72.04
2017-02-09T05:18:07.989Z,73.07
2017-02-09T05:19:07.639Z,72.99
2017-02-09T05:20:08.226Z,71.30
2017-02-09T05:21:07.871Z,71.26
2017-02-09T05:22:07.510Z,70.82
2017-02-09T05:23:08.175Z,70.81
2017-02-09T05:24:07.830Z,72.18
2017-02-09T05:25:10.035Z,71.05
2017-02-09T05:26:07.878Z,70.32
2017-02-09T05:27:07.590Z,70.57
2017-02-09T05:28:08.260Z,70.45
2017-02-09T05:29:07.965Z,71.00
2017-02-09T05:30:07.609Z,71.35
2017-02-09T05:31:08.233Z,70.65
2017-02-09T05:32:07.884Z,71.82
2017-02-09T05:33:07.558Z,71.76
2017-02-09T05:34:08.199Z,72.17
2017-02-09T05:35:07.856Z,71.92
2017-02-09T05:36:07.486Z,71.80
2017-02-09T05:37:08.150Z,72.73
2017-02-09T05:38:07.839Z,72.76
2017-02-09T05:39:07.524Z,72.36
2017-02-09T05:40:08.114Z,71.37
2017-02-09T05:41:07.756Z,71.65
2017-02-09T05:42:07.391Z,72.00
2017-02-09T05:43:08.100Z,72.54
2017-02-09T05:44:07.790Z,72.38
2017-02-09T05:45:07.423Z,72.44
2017-02-09T05:46:08.055Z,71.00
2017-02-09T05:47:07.704Z,71.79
2017-02-09T05:48:08.407Z,70.71
2017-02-09T05:49:08.050Z,71.21
2017-02-09T05:50:07.715Z,71.10
2017-02-09T05:51:08.374Z,71.63
2017-02-09T05:52:07.970Z,71.13
2017-02-09T05:53:07.670Z,70.80
2017-02-09T05:54:08.380Z,71.30
2017-02-09T05:55:07.955Z,70.20
2017-02-09T05:56:07.744Z,71.37
2017-02-09T05:57:07.407Z,71.69
2017-02-09T05:58:08.064Z,72.04
2017-02-09T05:59:07.755Z,71.71
2017-02-09T06:00:08.345Z,72.52
2017-02-09T06:01:07.991Z,72.58
2017-02-09T06:02:07.646Z,73.10
2017-02-09T06:03:08.365Z,72.50
2017-02-09T06:04:08.023Z,71.68
2017-02-09T06:05:07.620Z,71.38
2017-02-09T06:06:08.270Z,71.61
2017-02-09T06:07:07.965Z,70.94
2017-02-09T06:08:07.563Z,71.57
2017-02-09T06:09:08.210Z,71.19
2017-02-09T06:10:07.826Z,70.38
2017-02-09T06:11:07.478Z,70.94
2017-02-09T06:12:08.162Z,71.24
2017-02-09T06:13:07.798Z,70.59
2017-02-09T06:14:07.476Z,70.58
2017-02-09T06:15:08.141Z,70.94
2017-02-09T06:16:07.759Z,71.24
2017-02-09T06:17:07.475Z,71.81
2017-02-09T06:18:08.254Z,72.50
2017-02-09T06:19:07.906Z,73.23
2017-02-09T06:20:07.604Z,72.90
2017-02-09T06:21:08.195Z,72.85
2017-02-09T06:22:07.859Z,72.13
2017-02-09T06:23:07.489Z,72.44
2017-02-09T06:24:08.219Z,72.76
2017-02-09T06:25:07.788Z,72.83
2017-02-09T06:26:07.656Z,72.45
2017-02-09T06:27:08.283Z,72.36
2017-02-09T06:28:07.949Z,73.02
2017-02-09T06:29:07.599Z,72.58
2017-02-09T06:30:08.233Z,72.44
2017-02-09T06:31:07.873Z,71.96
2017-02-09T06:32:07.559Z,72.48
2017-02-09T06:33:08.306Z,72.08
2017-02-09T06:34:07.921Z,72.52
2017-02-09T06:35:07.499Z,72.64
2017-02-09T06:36:08.186Z,71.43
2017-02-09T06:37:07.865Z,71.84
2017-02-09T06:38:07.517Z,72.17
2017-02-09T06:39:08.206Z,71.97
2017-02-09T06:40:07.880Z,71.56
2017-02-09T06:41:07.513Z,71.40
2017-02-09T06:42:08.195Z,71.51
2017-02-09T06:43:07.804Z,71.04
2017-02-09T06:44:07.494Z,70.71
2017-02-09T06:45:08.051Z,71.69
2017-02-09T06:46:07.703Z,71.19
2017-02-09T06:47:08.371Z,71.30
2017-02-09T06:48:08.068Z,71.16
2017-02-09T06:49:07.707Z,71.70
2017-02-09T06:50:08.334Z,71.94
2017-02-09T06:51:07.929Z,71.31
2017-02-09T06:52:07.591Z,71.88
2017-02-09T06:53:08.863Z,71.35
2017-02-09T06:54:07.920Z,72.39
2017-02-09T06:55:07.501Z,73.63
2017-02-09T06:56:08.290Z,73.25
2017-02-09T06:57:07.988Z,72.56
2017-02-09T06:58:07.654Z,72.57
2017-02-09T06:59:08.343Z,73.74
2017-02-09T07:00:07.965Z,73.51
2017-02-09T07:01:07.684Z,72.10
2017-02-09T07:02:08.319Z,72.51
2017-02-09T07:03:07.985Z,72.37
2017-02-09T07:04:07.627Z,72.25
2017-02-09T07:05:08.269Z,71.46
2017-02-09T07:06:07.897Z,71.56
2017-02-09T07:07:07.573Z,71.46
2017-02-09T07:08:08.240Z,71.96
2017-02-09T07:09:07.891Z,72.20
2017-02-09T07:10:07.537Z,71.25
2017-02-09T07:11:08.150Z,71.80
2017-02-09T07:12:07.814Z,71.72
2017-02-09T07:13:07.465Z,71.59
2017-02-09T07:14:08.417Z,71.15
2017-02-09T07:15:07.777Z,72.13
2017-02-09T07:16:07.447Z,72.20
2017-02-09T07:17:08.136Z,72.57
2017-02-09T07:18:07.920Z,70.36
2017-02-09T07:19:07.573Z,70.32
2017-02-09T07:20:08.144Z,71.06
2017-02-09T07:21:08.144Z,72.06
2017-02-09T07:22:07.496Z,71.44
2017-02-09T07:23:08.126Z,72.76
2017-02-09T07:24:07.814Z,72.40
2017-02-09T07:25:07.411Z,72.63
2017-02-09T07:26:08.203Z,72.11
2017-02-09T07:27:07.811Z,72.30
2017-02-09T07:28:07.534Z,72.61
2017-02-09T07:29:08.217Z,72.79
2017-02-09T07:30:07.817Z,72.13
2017-02-09T07:31:07.448Z,72.20
2017-02-09T07:32:08.160Z,72.06
2017-02-09T07:33:07.873Z,71.45
2017-02-09T07:34:07.557Z,71.03
2017-02-09T07:35:08.132Z,71.48
2017-02-09T07:36:07.766Z,72.48
2017-02-09T07:37:08.473Z,71.72
2017-02-09T07:38:09.174Z,72.63
2017-02-09T07:39:07.789Z,71.45
2017-02-09T07:40:15.889Z,72.80
2017-02-09T07:41:08.059Z,72.74
2017-02-09T07:43:07.793Z,72.48
2017-02-09T07:44:07.469Z,73.34
2017-02-09T07:45:08.080Z,71.71
2017-02-09T07:46:07.720Z,72.05
2017-02-09T07:47:08.457Z,71.20
2017-02-09T07:48:08.045Z,71.08
2017-02-09T07:49:08.783Z,71.24
2017-02-09T07:50:18.903Z,71.46
2017-02-09T07:51:09.056Z,70.07
2017-02-09T07:52:08.719Z,70.52
2017-02-09T07:53:08.285Z,70.86
2017-02-09T07:54:07.965Z,70.52
2017-02-09T07:55:08.721Z,70.20
2017-02-09T07:56:18.774Z,70.38
2017-02-09T07:57:08.070Z,71.38
2017-02-09T07:59:08.281Z,71.38
2017-02-09T08:00:09.009Z,71.53
2017-02-09T08:01:08.655Z,71.33
2017-02-09T08:02:08.223Z,70.77
2017-02-09T08:03:07.934Z,71.04
2017-02-09T08:04:07.564Z,71.13
2017-02-09T08:05:08.833Z,70.29
2017-02-09T08:06:08.332Z,70.29
2017-02-09T08:07:09.107Z,70.62
2017-02-09T08:08:07.819Z,69.32
2017-02-09T08:09:09.398Z,69.20
2017-02-09T08:10:09.058Z,69.46
2017-02-09T08:11:07.639Z,70.05
2017-02-09T08:12:09.315Z,69.83
2017-02-09T08:13:07.945Z,69.47
2017-02-09T08:14:08.643Z,69.31
2017-02-09T08:15:08.329Z,68.28
2017-02-09T08:16:09.059Z,69.20
2017-02-09T08:17:08.649Z,68.77
2017-02-09T08:18:08.538Z,69.61
2017-02-09T08:19:08.170Z,70.10
2017-02-09T08:20:08.858Z,70.45
2017-02-09T08:21:08.357Z,70.99
2017-02-09T08:22:09.135Z,70.10
2017-02-09T08:23:07.642Z,70.78
2017-02-09T08:24:08.356Z,69.77
2017-02-09T08:25:09.106Z,69.27
2017-02-09T08:26:07.639Z,69.23
2017-02-09T08:28:10.244Z,68.27
2017-02-09T08:28:19.938Z,67.92
2017-02-09T08:29:08.922Z,67.02
2017-02-09T08:30:18.406Z,66.92
2017-02-09T08:31:08.173Z,66.78
2017-02-09T08:32:07.867Z,66.83
2017-02-09T08:33:08.562Z,66.21
2017-02-09T08:34:27.776Z,66.15
2017-02-09T08:35:08.451Z,67.08
2017-02-09T08:36:08.274Z,66.35
2017-02-09T08:37:07.958Z,66.48
2017-02-09T08:38:07.612Z,66.75
2017-02-09T08:39:08.269Z,66.74
2017-02-09T08:40:08.194Z,65.98
2017-02-09T08:41:07.866Z,66.73
2017-02-09T08:42:08.430Z,66.45
2017-02-09T08:43:08.162Z,66.24
2017-02-09T08:44:07.740Z,66.07
2017-02-09T08:46:08.611Z,65.69
2017-02-09T08:47:08.324Z,65.43
2017-02-09T08:48:08.118Z,65.14
2017-02-09T08:49:07.882Z,66.33
2017-02-09T08:50:08.691Z,65.36
2017-02-09T08:51:08.296Z,65.47
2017-02-09T08:52:08.012Z,65.56
2017-02-09T08:53:07.740Z,66.01
2017-02-09T08:54:08.427Z,65.63
2017-02-09T08:55:08.118Z,65.62
2017-02-09T08:56:07.794Z,65.19
2017-02-09T08:57:08.471Z,65.57
2017-02-09T08:58:08.086Z,65.33
2017-02-09T08:59:07.796Z,64.55
2017-02-09T09:00:08.608Z,65.69
2017-02-09T09:01:08.416Z,65.61
2017-02-09T09:02:08.092Z,65.15
2017-02-09T09:03:08.668Z,66.98
2017-02-09T09:04:08.051Z,66.58
2017-02-09T09:05:07.676Z,66.36
2017-02-09T09:06:08.334Z,65.88
2017-02-09T09:07:08.155Z,65.78
2017-02-09T09:08:07.771Z,66.67
2017-02-09T09:09:08.395Z,66.55
2017-02-09T09:10:08.074Z,66.98
2017-02-09T09:11:08.054Z,67.54
2017-02-09T09:12:07.734Z,67.82
2017-02-09T09:13:08.496Z,68.30
2017-02-09T09:14:08.185Z,67.39
2017-02-09T09:15:07.862Z,66.98
2017-02-09T09:16:08.560Z,67.10
2017-02-09T09:17:08.291Z,67.27
2017-02-09T09:18:08.177Z,67.31
2017-02-09T09:19:07.664Z,66.74
2017-02-09T09:20:08.124Z,66.54
2017-02-09T09:21:07.988Z,65.99
2017-02-09T09:22:07.650Z,65.79
2017-02-09T09:23:08.204Z,65.92
2017-02-09T09:24:07.862Z,65.87
2017-02-09T09:25:08.622Z,66.10
2017-02-09T09:26:23.584Z,65.51
2017-02-09T09:27:08.244Z,65.59
2017-02-09T09:28:07.955Z,65.43
2017-02-09T09:29:08.483Z,65.74
2017-02-09T09:30:08.365Z,65.23
2017-02-09T09:31:08.271Z,64.26
2017-02-09T09:32:08.000Z,63.82
2017-02-09T09:33:07.611Z,63.69
2017-02-09T09:34:08.287Z,64.28
2017-02-09T09:35:07.940Z,64.07
2017-02-09T09:36:07.574Z,63.16
2017-02-09T09:37:08.254Z,63.87
2017-02-09T09:38:07.789Z,64.56
2017-02-09T09:39:08.610Z,63.90
2017-02-09T09:40:08.245Z,63.66
2017-02-09T09:41:07.976Z,64.69
2017-02-09T09:42:07.725Z,64.65
2017-02-09T09:43:08.453Z,64.86
2017-02-09T09:44:08.129Z,64.43
2017-02-09T09:45:07.816Z,64.30
2017-02-09T09:46:08.574Z,63.69
2017-02-09T09:47:08.136Z,63.65
2017-02-09T09:48:08.698Z,64.27
2017-02-09T09:49:07.879Z,63.48
2017-02-09T09:50:08.732Z,62.84
2017-02-09T09:51:08.441Z,63.96
2017-02-09T09:52:07.882Z,64.49
2017-02-09T09:53:08.743Z,64.13
2017-02-09T09:54:08.419Z,64.41
2017-02-09T09:55:08.473Z,63.39
2017-02-09T09:56:07.923Z,62.74
2017-02-09T09:57:08.442Z,62.57
2017-02-09T09:58:08.044Z,61.74
2017-02-09T09:59:07.533Z,63.19
2017-02-09T10:00:08.093Z,62.82
2017-02-09T10:02:07.961Z,61.54
2017-02-09T10:02:32.363Z,62.08
2017-02-09T10:03:07.901Z,62.83
2017-02-09T10:04:08.468Z,63.47
2017-02-09T10:06:08.107Z,62.14
2017-02-09T10:06:11.427Z,62.83
2017-02-09T10:07:08.037Z,62.39
2017-02-09T10:08:07.628Z,61.33
2017-02-09T10:09:08.198Z,61.55
2017-02-09T10:10:07.827Z,62.71
2017-02-09T10:11:08.381Z,62.11
2017-02-09T10:12:07.880Z,61.95
2017-02-09T10:13:08.524Z,63.40
2017-02-09T10:14:09.064Z,61.77
2017-02-09T10:15:07.736Z,61.93
2017-02-09T10:16:08.245Z,60.77
2017-02-09T10:17:08.022Z,60.53
2017-02-09T10:18:07.603Z,61.67
2017-02-09T10:19:08.410Z,62.07
2017-02-09T10:20:08.049Z,61.70
2017-02-09T10:21:07.510Z,61.38
2017-02-09T10:22:08.061Z,62.25
2017-02-09T10:23:07.665Z,62.28
2017-02-09T10:24:08.292Z,61.35
2017-02-09T10:25:08.152Z,60.60
2017-02-09T10:26:07.716Z,60.98
2017-02-09T10:27:08.186Z,60.85
2017-02-09T10:28:07.912Z,60.82
2017-02-09T10:29:08.426Z,60.88
2017-02-09T10:30:08.004Z,59.90
2017-02-09T10:31:07.613Z,60.00
2017-02-09T10:32:08.114Z,61.57
2017-02-09T10:33:08.589Z,62.63
2017-02-09T10:34:08.741Z,61.96
2017-02-09T10:35:08.292Z,61.26
2017-02-09T10:36:08.039Z,61.53
2017-02-09T10:37:08.000Z,61.90
2017-02-09T10:38:07.434Z,61.60
2017-02-09T10:39:07.962Z,61.22
2017-02-09T10:40:07.650Z,60.49
2017-02-09T10:41:08.127Z,61.40
2017-02-09T10:42:07.727Z,61.45
2017-02-09T10:43:09.422Z,61.21
2017-02-09T10:44:08.196Z,60.43
2017-02-09T10:45:07.811Z,60.69
2017-02-09T10:46:07.851Z,61.12
2017-02-09T10:47:08.708Z,61.57
2017-02-09T10:48:08.313Z,61.61
2017-02-09T10:49:08.051Z,61.12
2017-02-09T10:50:07.540Z,61.54
2017-02-09T10:51:08.022Z,61.77
2017-02-09T10:52:07.589Z,61.17
2017-02-09T10:53:08.331Z,62.07
2017-02-09T10:54:08.129Z,61.53
2017-02-09T10:55:07.740Z,60.90
2017-02-09T10:56:08.220Z,60.15
2017-02-09T10:57:07.790Z,60.28
2017-02-09T10:58:08.521Z,60.84
2017-02-09T10:59:08.117Z,60.23
2017-02-09T11:00:07.725Z,60.58
2017-02-09T11:01:08.233Z,60.77
2017-02-09T11:02:07.787Z,59.88
2017-02-09T11:03:08.310Z,59.94
2017-02-09T11:04:08.210Z,59.63
2017-02-09T11:05:07.850Z,59.96
2017-02-09T11:06:08.519Z,60.51
2017-02-09T11:07:08.042Z,60.61
2017-02-09T11:08:07.756Z,60.83
2017-02-09T11:09:08.489Z,60.22
2017-02-09T11:10:07.975Z,59.33
2017-02-09T11:11:07.506Z,59.55
2017-02-09T11:12:08.397Z,58.82
2017-02-09T11:13:07.929Z,59.17
2017-02-09T11:14:08.854Z,58.61
2017-02-09T11:15:08.562Z,58.42
2017-02-09T11:16:08.063Z,58.50
2017-02-09T11:17:07.999Z,58.70
2017-02-09T11:18:07.563Z,60.71
2017-02-09T11:19:08.148Z,60.80
2017-02-09T11:20:07.724Z,59.84
2017-02-09T11:21:07.934Z,60.02
2017-02-09T11:22:07.662Z,59.91
2017-02-09T11:23:08.178Z,59.73
2017-02-09T11:24:07.647Z,59.90
2017-02-09T11:25:08.253Z,59.00
2017-02-09T11:26:07.772Z,58.93
2017-02-09T11:27:08.314Z,58.83
2017-02-09T11:28:07.740Z,59.27
2017-02-09T11:29:09.372Z,59.26
2017-02-09T11:30:07.968Z,59.33
2017-02-09T11:31:07.820Z,59.10
2017-02-09T11:32:08.297Z,59.06
2017-02-09T11:33:07.778Z,59.39
2017-02-09T11:34:08.361Z,58.75
2017-02-09T11:35:08.921Z,58.60
2017-02-09T11:36:07.839Z,57.78
2017-02-09T11:37:08.194Z,57.84
2017-02-09T11:38:07.809Z,59.04
2017-02-09T11:39:08.399Z,60.01
2017-02-09T11:40:08.472Z,59.12
2017-02-09T11:41:08.018Z,59.26
2017-02-09T11:42:07.780Z,59.77
2017-02-09T11:43:08.532Z,60.41
2017-02-09T11:44:09.041Z,60.38
2017-02-09T11:45:08.314Z,60.56
2017-02-09T11:46:07.787Z,60.64
2017-02-09T11:47:08.307Z,61.50
2017-02-09T11:48:07.948Z,61.05
2017-02-09T11:49:08.887Z,60.00
2017-02-09T11:50:08.747Z,59.86
2017-02-09T11:51:08.488Z,59.58
2017-02-09T11:52:07.952Z,59.89
2017-02-09T11:53:07.645Z,60.96
2017-02-09T11:54:17.895Z,60.44
2017-02-09T11:55:08.473Z,60.47
2017-02-09T11:56:08.018Z,59.66
2017-02-09T11:57:07.513Z,60.56
2017-02-09T11:58:08.129Z,60.20
2017-02-09T11:59:08.126Z,59.81
2017-02-09T12:00:07.892Z,59.39
2017-02-09T12:01:08.418Z,60.11
2017-02-09T12:02:07.981Z,60.11
2017-02-09T12:03:07.783Z,60.42
2017-02-09T12:04:08.335Z,60.01
2017-02-09T12:05:07.855Z,59.82
2017-02-09T12:06:08.377Z,61.00
2017-02-09T12:07:08.183Z,62.18
2017-02-09T12:08:07.748Z,61.27
2017-02-09T12:09:19.447Z,60.66
2017-02-09T12:10:07.985Z,59.18
2017-02-09T12:11:07.450Z,60.41
2017-02-09T12:12:08.008Z,59.91
2017-02-09T12:13:07.673Z,58.65
2017-02-09T12:14:08.243Z,58.44
2017-02-09T12:15:07.802Z,58.76
2017-02-09T12:16:08.546Z,57.96
2017-02-09T12:17:08.217Z,58.87
2017-02-09T12:18:07.749Z,59.19
2017-02-09T12:19:09.567Z,58.68
2017-02-09T12:20:08.360Z,57.92
2017-02-09T12:21:07.849Z,58.02
2017-02-09T12:22:08.473Z,59.30
2017-02-09T12:23:07.963Z,59.40
2017-02-09T12:24:07.719Z,58.93
2017-02-09T12:25:08.292Z,58.40
2017-02-09T12:26:07.794Z,59.33
2017-02-09T12:27:08.428Z,59.21
2017-02-09T12:28:08.128Z,57.70
2017-02-09T12:29:07.573Z,57.27
2017-02-09T12:30:08.173Z,57.42
2017-02-09T12:31:07.833Z,57.99
2017-02-09T12:32:09.476Z,58.77
2017-02-09T12:33:08.100Z,58.03
2017-02-09T12:34:07.905Z,57.74
2017-02-09T12:35:08.433Z,56.63
2017-02-09T12:36:07.961Z,56.96
2017-02-09T12:37:07.615Z,57.57
2017-02-09T12:38:08.181Z,57.16
2017-02-09T12:39:08.864Z,58.18
2017-02-09T12:40:07.417Z,58.48
2017-02-09T12:41:07.966Z,58.06
2017-02-09T12:42:07.526Z,57.92
2017-02-09T12:43:08.093Z,57.84
2017-02-09T12:44:07.745Z,57.31
2017-02-09T12:45:08.315Z,57.28
2017-02-09T12:46:07.774Z,57.32
2017-02-09T12:47:08.293Z,58.00
2017-02-09T12:48:07.842Z,58.14
2017-02-09T12:49:08.469Z,58.77
2017-02-09T12:50:20.742Z,58.84
2017-02-09T12:51:08.422Z,58.22
2017-02-09T12:52:08.047Z,58.51
2017-02-09T12:53:07.532Z,59.12
2017-02-09T12:54:08.278Z,58.77
2017-02-09T12:56:07.870Z,58.71